sensor_id;sensor_type;location;lat;lon;timestamp;P1;P2;P0
73973;PMS5003;62336;-26.094;27.994;2022-09-21T00:26:31;21;21;
73973;PMS5003;62336;-26.094;27.994;2022-09-21T00:28:58;24;22;
73973;PMS5003;62336;-26.094;27.994;2022-09-21T00:31:21;26;23;
73973;PMS5003;62336;-26.094;27.994;2022-09-21T00:33:46;25;24;
73973;PMS5003;62336;-26.094;27.994;2022-09-21T00:36:12;25;22;
73973;PMS5003;62336;-26.094;27.994;2022-09-21T00:38:38;20;20;
73973;PMS5003;62336;-26.094;27.994;2022-09-21T00:41:03;20;20;
73973;PMS5003;62336;-26.094;27.994;2022-09-21T00:43:28;20;18;
73973;PMS5003;62336;-26.094;27.994;2022-09-21T00:45:55;25;22;
73973;PMS5003;62336;-26.094;27.994;2022-09-21T00:48:19;20;17;
73973;PMS5003;62336;-26.094;27.994;2022-09-21T00:50:45;19;18;
73973;PMS5003;62336;-26.094;27.994;2022-09-21T00:53:09;21;20;
73973;PMS5003;62336;-26.094;27.994;2022-09-21T00:55:36;24;22;
73973;PMS5003;62336;-26.094;27.994;2022-09-21T00:58:01;19;18;
73973;PMS5003;62336;-26.094;27.994;2022-09-21T01:00:26;22;19;
73973;PMS5003;62336;-26.094;27.994;2022-09-21T01:02:51;18;18;
73973;PMS5003;62336;-26.094;27.994;2022-09-21T01:05:16;17;16;
73973;PMS5003;62336;-26.094;27.994;2022-09-21T01:07:42;22;21;
73973;PMS5003;62336;-26.094;27.994;2022-09-21T01:10:07;20;19;
73973;PMS5003;62336;-26.094;27.994;2022-09-21T01:12:36;16;15;
73973;PMS5003;62336;-26.094;27.994;2022-09-21T01:15:02;20;18;
73973;PMS5003;62336;-26.094;27.994;2022-09-21T01:17:26;15;14;
73973;PMS5003;62336;-26.094;27.994;2022-09-21T01:19:55;19;18;
73973;PMS5003;62336;-26.094;27.994;2022-09-21T01:22:15;26;24;
73973;PMS5003;62336;-26.094;27.994;2022-09-21T01:24:44;26;25;
73973;PMS5003;62336;-26.094;27.994;2022-09-21T01:27:14;22;21;
73973;PMS5003;62336;-26.094;27.994;2022-09-21T01:29:30;24;22;
73973;PMS5003;62336;-26.094;27.994;2022-09-21T01:31:57;20;19;
73973;PMS5003;62336;-26.094;27.994;2022-09-21T01:34:24;23;23;
73973;PMS5003;62336;-26.094;27.994;2022-09-21T01:36:47;24;23;
73973;PMS5003;62336;-26.094;27.994;2022-09-21T01:39:12;28;25;
73973;PMS5003;62336;-26.094;27.994;2022-09-21T01:41:38;24;23;
73973;PMS5003;62336;-26.094;27.994;2022-09-21T01:44:04;24;22;
73973;PMS5003;62336;-26.094;27.994;2022-09-21T01:46:29;25;22;
73973;PMS5003;62336;-26.094;27.994;2022-09-21T01:48:55;23;21;
73973;PMS5003;62336;-26.094;27.994;2022-09-21T01:51:20;23;23;
73973;PMS5003;62336;-26.094;27.994;2022-09-21T01:53:46;26;23;
73973;PMS5003;62336;-26.094;27.994;2022-09-21T01:56:12;26;23;
73973;PMS5003;62336;-26.094;27.994;2022-09-21T01:58:38;22;20;
73973;PMS5003;62336;-26.094;27.994;2022-09-21T02:01:02;22;22;
73973;PMS5003;62336;-26.094;27.994;2022-09-21T02:03:29;23;23;
73973;PMS5003;62336;-26.094;27.994;2022-09-21T02:05:54;20;18;
73973;PMS5003;62336;-26.094;27.994;2022-09-21T02:08:19;22;22;
73973;PMS5003;62336;-26.094;27.994;2022-09-21T02:10:47;22;21;
73973;PMS5003;62336;-26.094;27.994;2022-09-21T02:13:10;26;24;
73973;PMS5003;62336;-26.094;27.994;2022-09-21T02:15:39;24;23;
73973;PMS5003;62336;-26.094;27.994;2022-09-21T02:18:01;25;22;
73973;PMS5003;62336;-26.094;27.994;2022-09-21T02:20:26;24;22;
73973;PMS5003;62336;-26.094;27.994;2022-09-21T02:22:55;25;23;
73973;PMS5003;62336;-26.094;27.994;2022-09-21T02:25:17;24;21;
73973;PMS5003;62336;-26.094;27.994;2022-09-21T02:27:43;22;19;
73973;PMS5003;62336;-26.094;27.994;2022-09-21T02:30:07;23;22;
73973;PMS5003;62336;-26.094;27.994;2022-09-21T02:32:33;26;24;
73973;PMS5003;62336;-26.094;27.994;2022-09-21T02:34:58;24;23;
73973;PMS5003;62336;-26.094;27.994;2022-09-21T02:37:23;28;26;
73973;PMS5003;62336;-26.094;27.994;2022-09-21T02:39:50;26;24;
73973;PMS5003;62336;-26.094;27.994;2022-09-21T02:42:13;28;26;
73973;PMS5003;62336;-26.094;27.994;2022-09-21T02:44:39;26;23;
73973;PMS5003;62336;-26.094;27.994;2022-09-21T02:47:05;23;23;
73973;PMS5003;62336;-26.094;27.994;2022-09-21T02:49:30;23;22;
73973;PMS5003;62336;-26.094;27.994;2022-09-21T02:51:56;20;20;
73973;PMS5003;62336;-26.094;27.994;2022-09-21T02:54:21;25;22;
73973;PMS5003;62336;-26.094;27.994;2022-09-21T02:56:47;27;25;
73973;PMS5003;62336;-26.094;27.994;2022-09-21T02:59:11;23;22;
73973;PMS5003;62336;-26.094;27.994;2022-09-21T03:01:38;23;22;
73973;PMS5003;62336;-26.094;27.994;2022-09-21T03:04:02;26;25;
73973;PMS5003;62336;-26.094;27.994;2022-09-21T03:06:27;23;22;
73973;PMS5003;62336;-26.094;27.994;2022-09-21T03:08:53;28;24;
73973;PMS5003;62336;-26.094;27.994;2022-09-21T03:11:18;28;24;
73973;PMS5003;62336;-26.094;27.994;2022-09-21T03:13:44;24;22;
73973;PMS5003;62336;-26.094;27.994;2022-09-21T03:16:10;31;28;
73973;PMS5003;62336;-26.094;27.994;2022-09-21T03:18:34;23;23;
73973;PMS5003;62336;-26.094;27.994;2022-09-21T03:21:00;32;30;
73973;PMS5003;62336;-26.094;27.994;2022-09-21T03:23:25;32;27;
73973;PMS5003;62336;-26.094;27.994;2022-09-21T03:25:50;27;26;
73973;PMS5003;62336;-26.094;27.994;2022-09-21T03:28:16;28;27;
73973;PMS5003;62336;-26.094;27.994;2022-09-21T03:30:42;29;29;
73973;PMS5003;62336;-26.094;27.994;2022-09-21T03:33:09;30;25;
73973;PMS5003;62336;-26.094;27.994;2022-09-21T03:35:32;26;23;
73973;PMS5003;62336;-26.094;27.994;2022-09-21T03:37:58;27;26;
73973;PMS5003;62336;-26.094;27.994;2022-09-21T03:40:23;30;28;
73973;PMS5003;62336;-26.094;27.994;2022-09-21T03:42:49;28;25;
73973;PMS5003;62336;-26.094;27.994;2022-09-21T03:45:14;30;28;
73973;PMS5003;62336;-26.094;27.994;2022-09-21T03:47:39;29;27;
73973;PMS5003;62336;-26.094;27.994;2022-09-21T03:50:06;26;25;
73973;PMS5003;62336;-26.094;27.994;2022-09-21T03:52:31;33;30;
73973;PMS5003;62336;-26.094;27.994;2022-09-21T03:54:56;27;26;
73973;PMS5003;62336;-26.094;27.994;2022-09-21T03:57:21;24;23;
73973;PMS5003;62336;-26.094;27.994;2022-09-21T03:59:46;29;26;
73973;PMS5003;62336;-26.094;27.994;2022-09-21T04:02:11;28;24;
73973;PMS5003;62336;-26.094;27.994;2022-09-21T04:04:37;29;27;
73973;PMS5003;62336;-26.094;27.994;2022-09-21T04:07:03;32;27;
73973;PMS5003;62336;-26.094;27.994;2022-09-21T04:09:28;30;27;
73973;PMS5003;62336;-26.094;27.994;2022-09-21T04:11:53;34;30;
73973;PMS5003;62336;-26.094;27.994;2022-09-21T04:14:18;36;32;
73973;PMS5003;62336;-26.094;27.994;2022-09-21T04:16:43;29;28;
73973;PMS5003;62336;-26.094;27.994;2022-09-21T04:19:09;35;31;
73973;PMS5003;62336;-26.094;27.994;2022-09-21T04:21:35;37;35;
73973;PMS5003;62336;-26.094;27.994;2022-09-21T04:24:00;30;29;
73973;PMS5003;62336;-26.094;27.994;2022-09-21T04:26:27;32;30;
73973;PMS5003;62336;-26.094;27.994;2022-09-21T04:28:51;34;33;
73973;PMS5003;62336;-26.094;27.994;2022-09-21T04:31:16;34;31;
73973;PMS5003;62336;-26.094;27.994;2022-09-21T04:33:41;36;32;
73973;PMS5003;62336;-26.094;27.994;2022-09-21T04:36:07;37;31;
73973;PMS5003;62336;-26.094;27.994;2022-09-21T04:38:34;34;32;
73973;PMS5003;62336;-26.094;27.994;2022-09-21T04:40:58;36;35;
73973;PMS5003;62336;-26.094;27.994;2022-09-21T04:43:24;35;34;
73973;PMS5003;62336;-26.094;27.994;2022-09-21T04:45:49;38;36;
73973;PMS5003;62336;-26.094;27.994;2022-09-21T04:48:15;32;31;
73973;PMS5003;62336;-26.094;27.994;2022-09-21T04:50:40;34;30;
73973;PMS5003;62336;-26.094;27.994;2022-09-21T04:53:05;30;29;
73973;PMS5003;62336;-26.094;27.994;2022-09-21T04:55:30;42;40;
73973;PMS5003;62336;-26.094;27.994;2022-09-21T04:57:56;40;38;
73973;PMS5003;62336;-26.094;27.994;2022-09-21T05:00:21;39;35;
73973;PMS5003;62336;-26.094;27.994;2022-09-21T05:02:46;38;35;
73973;PMS5003;62336;-26.094;27.994;2022-09-21T05:05:12;37;32;
73973;PMS5003;62336;-26.094;27.994;2022-09-21T05:07:37;40;34;
73973;PMS5003;62336;-26.094;27.994;2022-09-21T05:10:04;39;33;
73973;PMS5003;62336;-26.094;27.994;2022-09-21T05:12:29;38;35;
73973;PMS5003;62336;-26.094;27.994;2022-09-21T05:14:54;40;39;
73973;PMS5003;62336;-26.094;27.994;2022-09-21T05:17:19;41;35;
73973;PMS5003;62336;-26.094;27.994;2022-09-21T05:19:45;47;45;
73973;PMS5003;62336;-26.094;27.994;2022-09-21T05:22:09;44;41;
73973;PMS5003;62336;-26.094;27.994;2022-09-21T05:24:35;43;41;
73973;PMS5003;62336;-26.094;27.994;2022-09-21T05:27:01;42;40;
73973;PMS5003;62336;-26.094;27.994;2022-09-21T05:29:27;45;42;
73973;PMS5003;62336;-26.094;27.994;2022-09-21T05:31:53;41;38;
73973;PMS5003;62336;-26.094;27.994;2022-09-21T05:34:22;42;40;
73973;PMS5003;62336;-26.094;27.994;2022-09-21T05:36:46;47;44;
73973;PMS5003;62336;-26.094;27.994;2022-09-21T05:39:09;44;38;
73973;PMS5003;62336;-26.094;27.994;2022-09-21T05:41:34;50;43;
73973;PMS5003;62336;-26.094;27.994;2022-09-21T05:43:59;43;40;
73973;PMS5003;62336;-26.094;27.994;2022-09-21T05:46:28;51;43;
73973;PMS5003;62336;-26.094;27.994;2022-09-21T05:48:51;39;39;
73973;PMS5003;62336;-26.094;27.994;2022-09-21T05:51:17;48;43;
73973;PMS5003;62336;-26.094;27.994;2022-09-21T05:53:44;47;43;
73973;PMS5003;62336;-26.094;27.994;2022-09-21T05:56:09;46;42;
73973;PMS5003;62336;-26.094;27.994;2022-09-21T05:58:34;39;37;
73973;PMS5003;62336;-26.094;27.994;2022-09-21T06:01:02;50;42;
73973;PMS5003;62336;-26.094;27.994;2022-09-21T06:03:26;39;38;
73973;PMS5003;62336;-26.094;27.994;2022-09-21T06:05:48;40;38;
73973;PMS5003;62336;-26.094;27.994;2022-09-21T06:08:14;43;41;
73973;PMS5003;62336;-26.094;27.994;2022-09-21T08:18:35;58;32;
73973;PMS5003;62336;-26.094;27.994;2022-09-21T08:21:00;40;36;
73973;PMS5003;62336;-26.094;27.994;2022-09-21T08:23:24;40;39;
73973;PMS5003;62336;-26.094;27.994;2022-09-21T08:25:50;39;35;
73973;PMS5003;62336;-26.094;27.994;2022-09-21T08:28:15;32;29;
73973;PMS5003;62336;-26.094;27.994;2022-09-21T08:30:41;35;35;
73973;PMS5003;62336;-26.094;27.994;2022-09-21T08:33:06;41;36;
73973;PMS5003;62336;-26.094;27.994;2022-09-21T08:35:32;39;37;
73973;PMS5003;62336;-26.094;27.994;2022-09-21T08:37:57;38;34;
73973;PMS5003;62336;-26.094;27.994;2022-09-21T08:40:23;47;47;
73973;PMS5003;62336;-26.094;27.994;2022-09-21T08:42:51;44;40;
73973;PMS5003;62336;-26.094;27.994;2022-09-21T08:45:14;39;38;
73973;PMS5003;62336;-26.094;27.994;2022-09-21T08:47:40;36;32;
73973;PMS5003;62336;-26.094;27.994;2022-09-21T08:50:22;39;37;
73973;PMS5003;62336;-26.094;27.994;2022-09-21T08:52:30;39;38;
73973;PMS5003;62336;-26.094;27.994;2022-09-21T08:54:56;37;36;
73973;PMS5003;62336;-26.094;27.994;2022-09-21T08:57:23;40;36;
73973;PMS5003;62336;-26.094;27.994;2022-09-21T08:59:47;40;36;
73973;PMS5003;62336;-26.094;27.994;2022-09-21T09:04:40;44;42;
73973;PMS5003;62336;-26.094;27.994;2022-09-21T09:07:08;39;34;
73973;PMS5003;62336;-26.094;27.994;2022-09-21T09:09:33;41;40;
73973;PMS5003;62336;-26.094;27.994;2022-09-21T09:11:58;40;36;
73973;PMS5003;62336;-26.094;27.994;2022-09-21T09:14:24;41;37;
73973;PMS5003;62336;-26.094;27.994;2022-09-21T09:16:48;47;44;
73973;PMS5003;62336;-26.094;27.994;2022-09-21T09:19:16;46;44;
73973;PMS5003;62336;-26.094;27.994;2022-09-21T09:21:38;46;41;
73973;PMS5003;62336;-26.094;27.994;2022-09-21T09:24:04;52;46;
73973;PMS5003;62336;-26.094;27.994;2022-09-21T09:26:33;53;49;
73973;PMS5003;62336;-26.094;27.994;2022-09-21T09:28:54;52;48;
73973;PMS5003;62336;-26.094;27.994;2022-09-21T09:31:20;50;45;
73973;PMS5003;62336;-26.094;27.994;2022-09-21T09:33:47;68;58;
73973;PMS5003;62336;-26.094;27.994;2022-09-21T09:36:10;58;52;
73973;PMS5003;62336;-26.094;27.994;2022-09-21T09:38:36;57;54;
73973;PMS5003;62336;-26.094;27.994;2022-09-21T09:41:06;56;54;
73973;PMS5003;62336;-26.094;27.994;2022-09-21T09:43:29;62;50;
73973;PMS5003;62336;-26.094;27.994;2022-09-21T09:45:54;53;48;
73973;PMS5003;62336;-26.094;27.994;2022-09-21T09:48:21;52;47;
73973;PMS5003;62336;-26.094;27.994;2022-09-21T09:50:42;58;49;
73973;PMS5003;62336;-26.094;27.994;2022-09-21T09:53:10;54;49;
73973;PMS5003;62336;-26.094;27.994;2022-09-21T09:55:35;55;50;
73973;PMS5003;62336;-26.094;27.994;2022-09-21T09:57:59;54;48;
73973;PMS5003;62336;-26.094;27.994;2022-09-21T10:00:24;53;49;
73973;PMS5003;62336;-26.094;27.994;2022-09-21T10:02:51;55;53;
73973;PMS5003;62336;-26.094;27.994;2022-09-21T10:05:19;50;47;
73973;PMS5003;62336;-26.094;27.994;2022-09-21T10:07:42;58;49;
73973;PMS5003;62336;-26.094;27.994;2022-09-21T10:12:31;52;45;
73973;PMS5003;62336;-26.094;27.994;2022-09-21T10:14:57;56;53;
73973;PMS5003;62336;-26.094;27.994;2022-09-21T10:17:23;50;47;
73973;PMS5003;62336;-26.094;27.994;2022-09-21T10:19:48;51;44;
73973;PMS5003;62336;-26.094;27.994;2022-09-21T10:22:14;48;44;
73973;PMS5003;62336;-26.094;27.994;2022-09-21T10:24:39;45;40;
73973;PMS5003;62336;-26.094;27.994;2022-09-21T10:27:05;47;44;
73973;PMS5003;62336;-26.094;27.994;2022-09-21T10:29:32;44;41;
73973;PMS5003;62336;-26.094;27.994;2022-09-21T10:31:56;47;46;
73973;PMS5003;62336;-26.094;27.994;2022-09-21T10:34:21;44;42;
73973;PMS5003;62336;-26.094;27.994;2022-09-21T10:36:48;43;38;
73973;PMS5003;62336;-26.094;27.994;2022-09-21T10:41:37;41;39;
73973;PMS5003;62336;-26.094;27.994;2022-09-21T10:44:02;37;37;
73973;PMS5003;62336;-26.094;27.994;2022-09-21T10:46:33;37;36;
73973;PMS5003;62336;-26.094;27.994;2022-09-21T10:48:53;52;46;
73973;PMS5003;62336;-26.094;27.994;2022-09-21T10:51:20;42;39;
73973;PMS5003;62336;-26.094;27.994;2022-09-21T10:53:46;38;34;
73973;PMS5003;62336;-26.094;27.994;2022-09-21T10:56:14;42;38;
73973;PMS5003;62336;-26.094;27.994;2022-09-21T10:58:34;85;80;
73973;PMS5003;62336;-26.094;27.994;2022-09-21T11:03:37;43;40;
73973;PMS5003;62336;-26.094;27.994;2022-09-21T11:05:51;56;51;
73973;PMS5003;62336;-26.094;27.994;2022-09-21T11:08:17;79;72;
73973;PMS5003;62336;-26.094;27.994;2022-09-21T11:10:42;69;64;
73973;PMS5003;62336;-26.094;27.994;2022-09-21T11:13:16;56;52;
73973;PMS5003;62336;-26.094;27.994;2022-09-21T11:15:36;50;46;
73973;PMS5003;62336;-26.094;27.994;2022-09-21T11:18:01;163;142;
73973;PMS5003;62336;-26.094;27.994;2022-09-21T11:20:25;118;109;
73973;PMS5003;62336;-26.094;27.994;2022-09-21T11:22:53;58;51;
73973;PMS5003;62336;-26.094;27.994;2022-09-21T11:25:19;308;270;
73973;PMS5003;62336;-26.094;27.994;2022-09-21T11:27:41;164;146;
73973;PMS5003;62336;-26.094;27.994;2022-09-21T11:30:09;78;72;
73973;PMS5003;62336;-26.094;27.994;2022-09-21T11:32:35;55;49;
73973;PMS5003;62336;-26.094;27.994;2022-09-21T11:35:01;77;67;
73973;PMS5003;62336;-26.094;27.994;2022-09-21T11:37:27;59;56;
73973;PMS5003;62336;-26.094;27.994;2022-09-21T11:39:52;50;46;
73973;PMS5003;62336;-26.094;27.994;2022-09-21T11:42:16;66;58;
73973;PMS5003;62336;-26.094;27.994;2022-09-21T11:44:42;93;85;
73973;PMS5003;62336;-26.094;27.994;2022-09-21T11:47:06;209;190;
73973;PMS5003;62336;-26.094;27.994;2022-09-21T11:49:35;64;62;
73973;PMS5003;62336;-26.094;27.994;2022-09-21T11:52:01;39;37;
73973;PMS5003;62336;-26.094;27.994;2022-09-21T11:56:45;71;61;
73973;PMS5003;62336;-26.094;27.994;2022-09-21T11:59:14;39;36;
73973;PMS5003;62336;-26.094;27.994;2022-09-21T12:01:38;57;54;
73973;PMS5003;62336;-26.094;27.994;2022-09-21T12:04:04;81;72;
73973;PMS5003;62336;-26.094;27.994;2022-09-21T12:06:30;73;65;
73973;PMS5003;62336;-26.094;27.994;2022-09-21T12:08:55;49;47;
73973;PMS5003;62336;-26.094;27.994;2022-09-21T12:11:21;41;39;
73973;PMS5003;62336;-26.094;27.994;2022-09-21T12:13:44;44;43;
73973;PMS5003;62336;-26.094;27.994;2022-09-21T12:16:09;47;44;
73973;PMS5003;62336;-26.094;27.994;2022-09-21T12:18:34;49;45;
73973;PMS5003;62336;-26.094;27.994;2022-09-21T12:21:00;49;46;
73973;PMS5003;62336;-26.094;27.994;2022-09-21T12:23:25;39;36;
73973;PMS5003;62336;-26.094;27.994;2022-09-21T12:25:50;42;39;
73973;PMS5003;62336;-26.094;27.994;2022-09-21T12:28:16;40;36;
73973;PMS5003;62336;-26.094;27.994;2022-09-21T12:30:40;38;37;
73973;PMS5003;62336;-26.094;27.994;2022-09-21T12:33:08;34;34;
73973;PMS5003;62336;-26.094;27.994;2022-09-21T12:35:34;34;33;
73973;PMS5003;62336;-26.094;27.994;2022-09-21T12:37:57;36;34;
73973;PMS5003;62336;-26.094;27.994;2022-09-21T12:40:22;41;39;
73973;PMS5003;62336;-26.094;27.994;2022-09-21T12:42:48;42;40;
73973;PMS5003;62336;-26.094;27.994;2022-09-21T12:45:14;43;38;
73973;PMS5003;62336;-26.094;27.994;2022-09-21T12:47:42;42;39;
73973;PMS5003;62336;-26.094;27.994;2022-09-21T12:50:04;36;35;
73973;PMS5003;62336;-26.094;27.994;2022-09-21T12:52:27;39;38;
73973;PMS5003;62336;-26.094;27.994;2022-09-21T12:54:55;43;43;
73973;PMS5003;62336;-26.094;27.994;2022-09-21T12:57:20;38;37;
73973;PMS5003;62336;-26.094;27.994;2022-09-21T12:59:46;38;36;
73973;PMS5003;62336;-26.094;27.994;2022-09-21T13:02:13;43;38;
73973;PMS5003;62336;-26.094;27.994;2022-09-21T13:04:38;46;43;
73973;PMS5003;62336;-26.094;27.994;2022-09-21T13:09:26;46;44;
73973;PMS5003;62336;-26.094;27.994;2022-09-21T13:11:52;42;37;
73973;PMS5003;62336;-26.094;27.994;2022-09-21T13:14:16;43;38;
73973;PMS5003;62336;-26.094;27.994;2022-09-21T13:16:42;41;39;
73973;PMS5003;62336;-26.094;27.994;2022-09-21T13:21:33;42;40;
73973;PMS5003;62336;-26.094;27.994;2022-09-21T13:23:59;41;37;
73973;PMS5003;62336;-26.094;27.994;2022-09-21T13:33:40;36;34;
73973;PMS5003;62336;-26.094;27.994;2022-09-21T13:38:30;48;45;
73973;PMS5003;62336;-26.094;27.994;2022-09-21T13:40:56;38;34;
73973;PMS5003;62336;-26.094;27.994;2022-09-21T13:43:23;36;34;
73973;PMS5003;62336;-26.094;27.994;2022-09-21T13:45:49;44;41;
73973;PMS5003;62336;-26.094;27.994;2022-09-21T13:48:12;39;34;
73973;PMS5003;62336;-26.094;27.994;2022-09-21T13:52:02;34;34;
73973;PMS5003;62336;-26.094;27.994;2022-09-21T13:54:27;58;56;
73973;PMS5003;62336;-26.094;27.994;2022-09-21T13:59:19;40;39;
73973;PMS5003;62336;-26.094;27.994;2022-09-21T14:01:42;37;34;
73973;PMS5003;62336;-26.094;27.994;2022-09-21T14:06:34;54;50;
73973;PMS5003;62336;-26.094;27.994;2022-09-21T14:08:59;42;40;
73973;PMS5003;62336;-26.094;27.994;2022-09-21T14:11:28;41;40;
73973;PMS5003;62336;-26.094;27.994;2022-09-21T14:18:40;42;39;
73973;PMS5003;62336;-26.094;27.994;2022-09-21T14:21:07;42;38;
73973;PMS5003;62336;-26.094;27.994;2022-09-21T14:23:30;42;41;
73973;PMS5003;62336;-26.094;27.994;2022-09-21T14:25:56;47;39;
73973;PMS5003;62336;-26.094;27.994;2022-09-21T14:28:32;41;37;
73973;PMS5003;62336;-26.094;27.994;2022-09-21T14:30:50;51;44;
73973;PMS5003;62336;-26.094;27.994;2022-09-21T14:33:16;47;45;
73973;PMS5003;62336;-26.094;27.994;2022-09-21T14:35:39;49;42;
73973;PMS5003;62336;-26.094;27.994;2022-09-21T14:38:04;51;50;
73973;PMS5003;62336;-26.094;27.994;2022-09-21T14:40:29;45;41;
73973;PMS5003;62336;-26.094;27.994;2022-09-21T14:42:54;41;40;
73973;PMS5003;62336;-26.094;27.994;2022-09-21T14:45:20;38;35;
73973;PMS5003;62336;-26.094;27.994;2022-09-21T14:47:48;39;39;
73973;PMS5003;62336;-26.094;27.994;2022-09-21T14:50:14;44;40;
73973;PMS5003;62336;-26.094;27.994;2022-09-21T14:52:39;43;41;
73973;PMS5003;62336;-26.094;27.994;2022-09-21T14:55:04;46;44;
73973;PMS5003;62336;-26.094;27.994;2022-09-21T14:57:31;50;47;
73973;PMS5003;62336;-26.094;27.994;2022-09-21T14:59:56;47;43;
73973;PMS5003;62336;-26.094;27.994;2022-09-21T15:02:17;45;42;
73973;PMS5003;62336;-26.094;27.994;2022-09-21T15:04:44;51;45;
73973;PMS5003;62336;-26.094;27.994;2022-09-21T15:07:10;50;48;
73973;PMS5003;62336;-26.094;27.994;2022-09-21T15:09:39;47;44;
73973;PMS5003;62336;-26.094;27.994;2022-09-21T15:11:59;50;48;
73973;PMS5003;62336;-26.094;27.994;2022-09-21T15:14:25;47;45;
73973;PMS5003;62336;-26.094;27.994;2022-09-21T15:16:49;48;46;
73973;PMS5003;62336;-26.094;27.994;2022-09-21T15:19:19;50;47;
73973;PMS5003;62336;-26.094;27.994;2022-09-21T15:21:41;45;44;
73973;PMS5003;62336;-26.094;27.994;2022-09-21T15:24:12;47;44;
73973;PMS5003;62336;-26.094;27.994;2022-09-21T15:26:32;42;41;
73973;PMS5003;62336;-26.094;27.994;2022-09-21T15:28:58;50;46;
73973;PMS5003;62336;-26.094;27.994;2022-09-21T15:31:22;43;41;
73973;PMS5003;62336;-26.094;27.994;2022-09-21T15:33:48;49;47;
73973;PMS5003;62336;-26.094;27.994;2022-09-21T15:38:39;47;45;
73973;PMS5003;62336;-26.094;27.994;2022-09-21T15:41:04;50;45;
73973;PMS5003;62336;-26.094;27.994;2022-09-21T15:43:30;54;52;
73973;PMS5003;62336;-26.094;27.994;2022-09-21T15:45:56;46;43;
73973;PMS5003;62336;-26.094;27.994;2022-09-21T15:48:20;46;42;
73973;PMS5003;62336;-26.094;27.994;2022-09-21T15:50:45;52;50;
73973;PMS5003;62336;-26.094;27.994;2022-09-21T15:53:13;46;42;
73973;PMS5003;62336;-26.094;27.994;2022-09-21T15:55:37;49;46;
73973;PMS5003;62336;-26.094;27.994;2022-09-21T15:58:01;50;48;
73973;PMS5003;62336;-26.094;27.994;2022-09-21T16:00:27;57;53;
73973;PMS5003;62336;-26.094;27.994;2022-09-21T16:02:56;54;50;
73973;PMS5003;62336;-26.094;27.994;2022-09-21T16:05:18;55;50;
73973;PMS5003;62336;-26.094;27.994;2022-09-21T16:07:43;59;53;
73973;PMS5003;62336;-26.094;27.994;2022-09-21T16:12:38;64;57;
73973;PMS5003;62336;-26.094;27.994;2022-09-21T16:14:59;55;53;
73973;PMS5003;62336;-26.094;27.994;2022-09-21T16:17:25;60;55;
73973;PMS5003;62336;-26.094;27.994;2022-09-21T16:22:17;56;54;
73973;PMS5003;62336;-26.094;27.994;2022-09-21T16:24:44;58;52;
73973;PMS5003;62336;-26.094;27.994;2022-09-21T16:27:12;60;54;
73973;PMS5003;62336;-26.094;27.994;2022-09-21T16:29:36;60;56;
73973;PMS5003;62336;-26.094;27.994;2022-09-21T16:36:48;57;54;
73973;PMS5003;62336;-26.094;27.994;2022-09-21T16:39:14;62;60;
73973;PMS5003;62336;-26.094;27.994;2022-09-21T16:41:40;58;55;
73973;PMS5003;62336;-26.094;27.994;2022-09-21T16:44:05;66;57;
73973;PMS5003;62336;-26.094;27.994;2022-09-21T16:46:30;61;58;
73973;PMS5003;62336;-26.094;27.994;2022-09-21T16:48:55;66;59;
73973;PMS5003;62336;-26.094;27.994;2022-09-21T16:51:20;62;58;
73973;PMS5003;62336;-26.094;27.994;2022-09-21T16:53:45;62;60;
73973;PMS5003;62336;-26.094;27.994;2022-09-21T16:56:12;68;62;
73973;PMS5003;62336;-26.094;27.994;2022-09-21T16:58:37;66;60;
73973;PMS5003;62336;-26.094;27.994;2022-09-21T17:01:02;72;69;
73973;PMS5003;62336;-26.094;27.994;2022-09-21T17:03:28;72;68;
73973;PMS5003;62336;-26.094;27.994;2022-09-21T17:05:53;73;68;
73973;PMS5003;62336;-26.094;27.994;2022-09-21T17:08:19;69;66;
73973;PMS5003;62336;-26.094;27.994;2022-09-21T17:10:45;66;61;
73973;PMS5003;62336;-26.094;27.994;2022-09-21T17:13:11;63;60;
73973;PMS5003;62336;-26.094;27.994;2022-09-21T17:15:37;70;61;
73973;PMS5003;62336;-26.094;27.994;2022-09-21T17:18:02;69;64;
73973;PMS5003;62336;-26.094;27.994;2022-09-21T17:20:30;64;59;
73973;PMS5003;62336;-26.094;27.994;2022-09-21T17:22:52;67;63;
73973;PMS5003;62336;-26.094;27.994;2022-09-21T17:25:18;65;59;
73973;PMS5003;62336;-26.094;27.994;2022-09-21T17:27:43;68;64;
73973;PMS5003;62336;-26.094;27.994;2022-09-21T17:30:10;70;65;
73973;PMS5003;62336;-26.094;27.994;2022-09-21T17:32:35;65;59;
73973;PMS5003;62336;-26.094;27.994;2022-09-21T17:35:00;67;63;
73973;PMS5003;62336;-26.094;27.994;2022-09-21T17:37:24;71;65;
73973;PMS5003;62336;-26.094;27.994;2022-09-21T17:39:50;64;59;
73973;PMS5003;62336;-26.094;27.994;2022-09-21T17:42:16;69;64;
73973;PMS5003;62336;-26.094;27.994;2022-09-21T17:44:51;72;67;
73973;PMS5003;62336;-26.094;27.994;2022-09-21T17:47:08;72;64;
73973;PMS5003;62336;-26.094;27.994;2022-09-21T17:49:31;76;73;
73973;PMS5003;62336;-26.094;27.994;2022-09-21T17:51:57;78;72;
73973;PMS5003;62336;-26.094;27.994;2022-09-21T17:54:21;85;77;
73973;PMS5003;62336;-26.094;27.994;2022-09-21T17:56:49;76;68;
73973;PMS5003;62336;-26.094;27.994;2022-09-21T17:59:17;85;76;
73973;PMS5003;62336;-26.094;27.994;2022-09-21T18:01:38;80;73;
73973;PMS5003;62336;-26.094;27.994;2022-09-21T18:04:04;80;69;
73973;PMS5003;62336;-26.094;27.994;2022-09-21T18:06:29;63;58;
73973;PMS5003;62336;-26.094;27.994;2022-09-21T18:08:55;59;55;
73973;PMS5003;62336;-26.094;27.994;2022-09-21T18:11:13;60;60;
73973;PMS5003;62336;-26.094;27.994;2022-09-21T18:13:37;61;57;
73973;PMS5003;62336;-26.094;27.994;2022-09-21T18:16:03;51;47;
73973;PMS5003;62336;-26.094;27.994;2022-09-21T18:18:29;49;45;
73973;PMS5003;62336;-26.094;27.994;2022-09-21T18:20:53;51;49;
73973;PMS5003;62336;-26.094;27.994;2022-09-21T18:23:21;47;44;
73973;PMS5003;62336;-26.094;27.994;2022-09-21T18:25:42;52;48;
73973;PMS5003;62336;-26.094;27.994;2022-09-21T18:28:09;52;47;
73973;PMS5003;62336;-26.094;27.994;2022-09-21T18:30:32;53;47;
73973;PMS5003;62336;-26.094;27.994;2022-09-21T18:33:02;43;41;
73973;PMS5003;62336;-26.094;27.994;2022-09-21T18:35:28;49;43;
73973;PMS5003;62336;-26.094;27.994;2022-09-21T18:37:53;42;40;
73973;PMS5003;62336;-26.094;27.994;2022-09-21T18:40:16;39;37;
73973;PMS5003;62336;-26.094;27.994;2022-09-21T18:42:42;48;43;
73973;PMS5003;62336;-26.094;27.994;2022-09-21T18:45:07;43;40;
73973;PMS5003;62336;-26.094;27.994;2022-09-21T18:47:32;53;44;
73973;PMS5003;62336;-26.094;27.994;2022-09-21T18:49:57;47;43;
73973;PMS5003;62336;-26.094;27.994;2022-09-21T18:52:26;45;41;
73973;PMS5003;62336;-26.094;27.994;2022-09-21T18:54:47;42;40;
73973;PMS5003;62336;-26.094;27.994;2022-09-21T18:57:13;41;37;